sensor_id;sensor_type;location;lat;lon;timestamp;pressure;altitude;pressure_sealevel;temperature;humidity
15487;BME280;7845;53.698;10.078;2023-07-09T00:02:19;101781.13;;;23.39;100.00
15487;BME280;7845;53.698;10.078;2023-07-09T00:04:45;101783.84;;;23.38;100.00
15487;BME280;7845;53.698;10.078;2023-07-09T00:07:18;101787.38;;;23.38;100.00
15487;BME280;7845;53.698;10.078;2023-07-09T00:09:44;101782.88;;;23.40;100.00
15487;BME280;7845;53.698;10.078;2023-07-09T00:12:15;101779.13;;;23.44;100.00
15487;BME280;7845;53.698;10.078;2023-07-09T00:14:41;101778.41;;;23.41;100.00
15487;BME280;7845;53.698;10.078;2023-07-09T00:17:11;101778.41;;;23.41;100.00
15487;BME280;7845;53.698;10.078;2023-07-09T00:19:37;101779.94;;;23.46;100.00
15487;BME280;7845;53.698;10.078;2023-07-09T00:22:02;101785.91;;;23.31;100.00
15487;BME280;7845;53.698;10.078;2023-07-09T00:24:28;101780.31;;;23.17;100.00
15487;BME280;7845;53.698;10.078;2023-07-09T00:26:53;101782.03;;;23.18;100.00
15487;BME280;7845;53.698;10.078;2023-07-09T00:29:22;101782.84;;;23.20;100.00
15487;BME280;7845;53.698;10.078;2023-07-09T00:31:47;101787.09;;;23.24;100.00
15487;BME280;7845;53.698;10.078;2023-07-09T00:34:14;101793.44;;;23.22;100.00
15487;BME280;7845;53.698;10.078;2023-07-09T00:36:42;101789.09;;;23.19;100.00
15487;BME280;7845;53.698;10.078;2023-07-09T00:39:22;101793.56;;;23.19;100.00
15487;BME280;7845;53.698;10.078;2023-07-09T00:41:49;101791.38;;;23.08;100.00
15487;BME280;7845;53.698;10.078;2023-07-09T00:44:25;101790.03;;;22.98;100.00
15487;BME280;7845;53.698;10.078;2023-07-09T00:49:36;101790.03;;;22.78;100.00
15487;BME280;7845;53.698;10.078;2023-07-09T00:52:29;101786.31;;;22.82;100.00
15487;BME280;7845;53.698;10.078;2023-07-09T00:54:59;101790.50;;;22.87;100.00
15487;BME280;7845;53.698;10.078;2023-07-09T00:57:28;101788.41;;;22.94;100.00
15487;BME280;7845;53.698;10.078;2023-07-09T00:59:58;101781.50;;;22.90;100.00
15487;BME280;7845;53.698;10.078;2023-07-09T01:02:26;101787.22;;;22.81;100.00
15487;BME280;7845;53.698;10.078;2023-07-09T01:04:54;101779.00;;;22.65;100.00
15487;BME280;7845;53.698;10.078;2023-07-09T01:07:29;101787.59;;;22.50;100.00
15487;BME280;7845;53.698;10.078;2023-07-09T01:09:55;101784.50;;;22.60;100.00
15487;BME280;7845;53.698;10.078;2023-07-09T01:12:21;101787.16;;;22.60;100.00
15487;BME280;7845;53.698;10.078;2023-07-09T01:14:48;101795.28;;;22.57;100.00
15487;BME280;7845;53.698;10.078;2023-07-09T01:17:17;101794.28;;;22.60;100.00
15487;BME280;7845;53.698;10.078;2023-07-09T01:19:44;101782.63;;;22.63;100.00
15487;BME280;7845;53.698;10.078;2023-07-09T01:22:16;101776.31;;;22.67;100.00
15487;BME280;7845;53.698;10.078;2023-07-09T01:24:59;101771.25;;;22.59;100.00
15487;BME280;7845;53.698;10.078;2023-07-09T01:27:42;101767.91;;;22.54;100.00
15487;BME280;7845;53.698;10.078;2023-07-09T01:30:11;101762.47;;;22.57;100.00
15487;BME280;7845;53.698;10.078;2023-07-09T01:32:37;101765.25;;;22.54;100.00
15487;BME280;7845;53.698;10.078;2023-07-09T01:35:04;101765.44;;;22.49;100.00
15487;BME280;7845;53.698;10.078;2023-07-09T01:37:34;101767.31;;;22.47;100.00
15487;BME280;7845;53.698;10.078;2023-07-09T01:40:02;101765.69;;;22.43;100.00
15487;BME280;7845;53.698;10.078;2023-07-09T01:42:30;101769.53;;;22.36;100.00
15487;BME280;7845;53.698;10.078;2023-07-09T01:44:56;101768.41;;;22.42;100.00
15487;BME280;7845;53.698;10.078;2023-07-09T01:47:22;101765.69;;;22.43;100.00
15487;BME280;7845;53.698;10.078;2023-07-09T01:49:49;101771.00;;;22.43;100.00
15487;BME280;7845;53.698;10.078;2023-07-09T01:52:15;101770.75;;;22.49;100.00
15487;BME280;7845;53.698;10.078;2023-07-09T01:54:44;101773.78;;;22.40;100.00
15487;BME280;7845;53.698;10.078;2023-07-09T01:57:23;101771.25;;;22.37;100.00
15487;BME280;7845;53.698;10.078;2023-07-09T01:59:53;101764.13;;;22.38;100.00
15487;BME280;7845;53.698;10.078;2023-07-09T02:02:23;101769.47;;;22.38;100.00
15487;BME280;7845;53.698;10.078;2023-07-09T02:04:55;101762.56;;;22.34;100.00
15487;BME280;7845;53.698;10.078;2023-07-09T02:07:22;101767.19;;;22.29;100.00
15487;BME280;7845;53.698;10.078;2023-07-09T02:09:48;101769.22;;;22.22;100.00
15487;BME280;7845;53.698;10.078;2023-07-09T02:12:14;101764.84;;;22.21;100.00
15487;BME280;7845;53.698;10.078;2023-07-09T02:14:41;101768.66;;;22.14;100.00
15487;BME280;7845;53.698;10.078;2023-07-09T02:17:07;101767.06;;;22.10;100.00
15487;BME280;7845;53.698;10.078;2023-07-09T02:19:32;101765.47;;;22.04;100.00
15487;BME280;7845;53.698;10.078;2023-07-09T02:21:58;101764.75;;;22.01;100.00
15487;BME280;7845;53.698;10.078;2023-07-09T02:24:23;101765.72;;;21.98;100.00
15487;BME280;7845;53.698;10.078;2023-07-09T02:27:02;101771.03;;;21.98;100.00
15487;BME280;7845;53.698;10.078;2023-07-09T02:29:28;101770.09;;;22.01;100.00
15487;BME280;7845;53.698;10.078;2023-07-09T02:31:56;101766.25;;;21.85;100.00
15487;BME280;7845;53.698;10.078;2023-07-09T02:34:22;101764.84;;;21.75;100.00
15487;BME280;7845;53.698;10.078;2023-07-09T02:36:54;101763.19;;;21.72;100.00
15487;BME280;7845;53.698;10.078;2023-07-09T02:39:20;101758.16;;;21.65;100.00
15487;BME280;7845;53.698;10.078;2023-07-09T02:41:46;101755.19;;;21.72;100.00
15487;BME280;7845;53.698;10.078;2023-07-09T02:44:12;101757.59;;;21.80;100.00
15487;BME280;7845;53.698;10.078;2023-07-09T02:46:37;101758.06;;;21.91;100.00
15487;BME280;7845;53.698;10.078;2023-07-09T02:49:03;101757.34;;;21.86;100.00
15487;BME280;7845;53.698;10.078;2023-07-09T02:51:29;101755.66;;;21.83;100.00
15487;BME280;7845;53.698;10.078;2023-07-09T02:53:56;101768.91;;;21.85;100.00
15487;BME280;7845;53.698;10.078;2023-07-09T02:56:22;101766.78;;;21.71;100.00
15487;BME280;7845;53.698;10.078;2023-07-09T02:58:49;101760.63;;;21.69;100.00
15487;BME280;7845;53.698;10.078;2023-07-09T03:01:14;101761.59;;;21.68;100.00
15487;BME280;7845;53.698;10.078;2023-07-09T03:03:39;101761.94;;;21.59;100.00
15487;BME280;7845;53.698;10.078;2023-07-09T03:06:06;101763.41;;;21.66;100.00
15487;BME280;7845;53.698;10.078;2023-07-09T03:08:32;101771.69;;;21.59;100.00
15487;BME280;7845;53.698;10.078;2023-07-09T03:10:57;101769.72;;;21.64;100.00
15487;BME280;7845;53.698;10.078;2023-07-09T03:13:25;101770.97;;;21.53;100.00
15487;BME280;7845;53.698;10.078;2023-07-09T03:15:55;101770.00;;;21.56;100.00
15487;BME280;7845;53.698;10.078;2023-07-09T03:18:21;101770.84;;;21.57;100.00
15487;BME280;7845;53.698;10.078;2023-07-09T03:20:46;101767.34;;;21.56;100.00
15487;BME280;7845;53.698;10.078;2023-07-09T03:23:13;101771.47;;;21.65;100.00
15487;BME280;7845;53.698;10.078;2023-07-09T03:25:41;101773.81;;;21.72;100.00
15487;BME280;7845;53.698;10.078;2023-07-09T03:28:07;101771.03;;;21.75;100.00
15487;BME280;7845;53.698;10.078;2023-07-09T03:30:40;101772.53;;;21.82;100.00
15487;BME280;7845;53.698;10.078;2023-07-09T03:33:05;101771.47;;;21.86;100.00
15487;BME280;7845;53.698;10.078;2023-07-09T03:35:30;101779.78;;;21.79;100.00
15487;BME280;7845;53.698;10.078;2023-07-09T03:37:56;101777.91;;;21.81;100.00
15487;BME280;7845;53.698;10.078;2023-07-09T03:40:22;101778.97;;;21.77;100.00
15487;BME280;7845;53.698;10.078;2023-07-09T03:42:48;101780.56;;;21.81;100.00
15487;BME280;7845;53.698;10.078;2023-07-09T03:45:14;101775.81;;;21.90;100.00
15487;BME280;7845;53.698;10.078;2023-07-09T03:47:40;101770.25;;;21.96;100.00
15487;BME280;7845;53.698;10.078;2023-07-09T03:50:08;101770.91;;;22.01;100.00
15487;BME280;7845;53.698;10.078;2023-07-09T03:52:35;101770.13;;;21.99;100.00
15487;BME280;7845;53.698;10.078;2023-07-09T03:55:01;101770.91;;;22.01;100.00
15487;BME280;7845;53.698;10.078;2023-07-09T03:57:31;101775.09;;;22.09;100.00
15487;BME280;7845;53.698;10.078;2023-07-09T03:59:57;101769.00;;;22.05;100.00
15487;BME280;7845;53.698;10.078;2023-07-09T04:02:22;101774.09;;;22.11;100.00
15487;BME280;7845;53.698;10.078;2023-07-09T04:04:48;101781.59;;;22.23;100.00
15487;BME280;7845;53.698;10.078;2023-07-09T04:07:14;101784.22;;;22.25;100.00
15487;BME280;7845;53.698;10.078;2023-07-09T04:09:40;101785.13;;;22.24;100.00
15487;BME280;7845;53.698;10.078;2023-07-09T04:12:06;101776.78;;;22.33;100.00
15487;BME280;7845;53.698;10.078;2023-07-09T04:14:32;101777.91;;;22.27;100.00
15487;BME280;7845;53.698;10.078;2023-07-09T04:16:57;101769.78;;;22.30;100.00
15487;BME280;7845;53.698;10.078;2023-07-09T04:19:23;101771.84;;;22.45;100.00
15487;BME280;7845;53.698;10.078;2023-07-09T04:21:48;101764.19;;;22.58;100.00
15487;BME280;7845;53.698;10.078;2023-07-09T04:24:16;101765.56;;;22.68;100.00
15487;BME280;7845;53.698;10.078;2023-07-09T04:26:41;101760.72;;;22.78;100.00
15487;BME280;7845;53.698;10.078;2023-07-09T04:29:07;101763.94;;;22.86;100.00
15487;BME280;7845;53.698;10.078;2023-07-09T04:31:32;101757.94;;;23.01;100.00
15487;BME280;7845;53.698;10.078;2023-07-09T04:33:57;101758.69;;;23.04;100.00
15487;BME280;7845;53.698;10.078;2023-07-09T04:36:23;101763.59;;;23.13;100.00
15487;BME280;7845;53.698;10.078;2023-07-09T04:38:48;101758.53;;;23.66;100.00
15487;BME280;7845;53.698;10.078;2023-07-09T04:41:14;101757.03;;;23.61;100.00
15487;BME280;7845;53.698;10.078;2023-07-09T04:43:39;101757.75;;;23.64;100.00
15487;BME280;7845;53.698;10.078;2023-07-09T04:46:05;101746.66;;;24.11;100.00
15487;BME280;7845;53.698;10.078;2023-07-09T04:48:30;101746.31;;;24.54;98.34
15487;BME280;7845;53.698;10.078;2023-07-09T04:50:55;101746.34;;;24.89;94.85
15487;BME280;7845;53.698;10.078;2023-07-09T04:53:21;101739.97;;;24.91;91.43
15487;BME280;7845;53.698;10.078;2023-07-09T04:55:49;101746.63;;;24.65;91.89
15487;BME280;7845;53.698;10.078;2023-07-09T04:58:14;101750.59;;;24.93;93.43
15487;BME280;7845;53.698;10.078;2023-07-09T05:00:42;101737.25;;;25.25;91.38
15487;BME280;7845;53.698;10.078;2023-07-09T05:03:07;101749.06;;;26.18;88.52
15487;BME280;7845;53.698;10.078;2023-07-09T05:05:33;101737.03;;;26.25;83.65
15487;BME280;7845;53.698;10.078;2023-07-09T05:07:58;101739.44;;;26.14;84.70
15487;BME280;7845;53.698;10.078;2023-07-09T05:10:23;101731.16;;;27.38;82.38
15487;BME280;7845;53.698;10.078;2023-07-09T05:12:50;101719.19;;;28.66;73.29
15487;BME280;7845;53.698;10.078;2023-07-09T05:15:17;101717.00;;;28.05;70.95
15487;BME280;7845;53.698;10.078;2023-07-09T05:17:42;101721.25;;;27.10;73.08
15487;BME280;7845;53.698;10.078;2023-07-09T05:20:08;101732.25;;;26.16;75.24
15487;BME280;7845;53.698;10.078;2023-07-09T05:22:35;101737.50;;;25.54;79.36
15487;BME280;7845;53.698;10.078;2023-07-09T05:25:00;101726.34;;;25.13;81.30
15487;BME280;7845;53.698;10.078;2023-07-09T05:27:25;101738.88;;;24.95;84.33
15487;BME280;7845;53.698;10.078;2023-07-09T05:29:51;101739.50;;;24.83;87.58
15487;BME280;7845;53.698;10.078;2023-07-09T05:32:16;101736.81;;;24.83;87.32
15487;BME280;7845;53.698;10.078;2023-07-09T05:34:41;101743.75;;;24.87;88.22
15487;BME280;7845;53.698;10.078;2023-07-09T05:37:07;101744.03;;;25.15;87.67
15487;BME280;7845;53.698;10.078;2023-07-09T05:39:32;101741.84;;;25.39;87.63
15487;BME280;7845;53.698;10.078;2023-07-09T05:41:57;101749.25;;;25.51;85.62
15487;BME280;7845;53.698;10.078;2023-07-09T05:44:22;101744.69;;;25.53;85.16
15487;BME280;7845;53.698;10.078;2023-07-09T05:46:48;101747.22;;;25.56;85.23
15487;BME280;7845;53.698;10.078;2023-07-09T05:49:13;101752.22;;;25.62;85.50
15487;BME280;7845;53.698;10.078;2023-07-09T05:51:38;101752.72;;;25.69;85.21
15487;BME280;7845;53.698;10.078;2023-07-09T05:54:04;101744.69;;;25.69;86.68
15487;BME280;7845;53.698;10.078;2023-07-09T05:56:29;101756.59;;;25.63;89.98
15487;BME280;7845;53.698;10.078;2023-07-09T05:58:55;101752.06;;;25.65;90.51
15487;BME280;7845;53.698;10.078;2023-07-09T06:01:24;101740.19;;;25.54;89.58
15487;BME280;7845;53.698;10.078;2023-07-09T06:03:50;101749.94;;;25.55;91.99
15487;BME280;7845;53.698;10.078;2023-07-09T06:06:15;101751.09;;;25.66;91.77
15487;BME280;7845;53.698;10.078;2023-07-09T06:08:41;101742.72;;;25.72;92.49
15487;BME280;7845;53.698;10.078;2023-07-09T06:11:06;101745.91;;;25.63;92.11
15487;BME280;7845;53.698;10.078;2023-07-09T06:13:32;101743.34;;;25.77;92.20
15487;BME280;7845;53.698;10.078;2023-07-09T06:15:58;101746.00;;;25.93;90.76
15487;BME280;7845;53.698;10.078;2023-07-09T06:18:25;101741.28;;;25.98;90.16
15487;BME280;7845;53.698;10.078;2023-07-09T06:20:55;101744.72;;;26.00;87.29
15487;BME280;7845;53.698;10.078;2023-07-09T06:23:23;101738.94;;;26.08;86.50
15487;BME280;7845;53.698;10.078;2023-07-09T06:25:49;101730.06;;;26.07;84.27
15487;BME280;7845;53.698;10.078;2023-07-09T06:28:17;101738.75;;;26.11;84.42
15487;BME280;7845;53.698;10.078;2023-07-09T06:30:43;101727.47;;;26.21;83.83
15487;BME280;7845;53.698;10.078;2023-07-09T06:33:10;101727.13;;;26.27;83.53
15487;BME280;7845;53.698;10.078;2023-07-09T06:35:36;101730.84;;;26.25;82.39
15487;BME280;7845;53.698;10.078;2023-07-09T06:38:04;101728.41;;;26.36;81.41
15487;BME280;7845;53.698;10.078;2023-07-09T06:40:30;101730.31;;;26.34;82.53
15487;BME280;7845;53.698;10.078;2023-07-09T06:42:55;101733.22;;;26.45;81.47
15487;BME280;7845;53.698;10.078;2023-07-09T06:45:20;101731.94;;;26.52;80.11
15487;BME280;7845;53.698;10.078;2023-07-09T06:47:46;101734.28;;;26.43;80.11
15487;BME280;7845;53.698;10.078;2023-07-09T06:50:12;101724.72;;;26.53;79.95
15487;BME280;7845;53.698;10.078;2023-07-09T06:52:38;101738.09;;;26.68;80.97
15487;BME280;7845;53.698;10.078;2023-07-09T06:55:05;101738.84;;;26.70;79.88
15487;BME280;7845;53.698;10.078;2023-07-09T06:57:30;101736.78;;;26.75;79.02
15487;BME280;7845;53.698;10.078;2023-07-09T06:59:57;101745.34;;;26.82;78.71
15487;BME280;7845;53.698;10.078;2023-07-09T07:02:22;101741.69;;;26.83;78.79
15487;BME280;7845;53.698;10.078;2023-07-09T07:04:48;101741.16;;;26.76;78.95
15487;BME280;7845;53.698;10.078;2023-07-09T07:07:13;101744.50;;;26.96;79.89
15487;BME280;7845;53.698;10.078;2023-07-09T07:09:39;101742.50;;;26.99;79.84
15487;BME280;7845;53.698;10.078;2023-07-09T07:12:05;101742.69;;;26.96;81.12
15487;BME280;7845;53.698;10.078;2023-07-09T07:14:31;101746.44;;;27.08;79.64
15487;BME280;7845;53.698;10.078;2023-07-09T07:16:56;101741.19;;;27.20;79.52
15487;BME280;7845;53.698;10.078;2023-07-09T07:19:23;101740.97;;;27.09;79.49
15487;BME280;7845;53.698;10.078;2023-07-09T07:21:48;101749.81;;;27.25;80.08
15487;BME280;7845;53.698;10.078;2023-07-09T07:24:13;101748.06;;;27.10;79.81
15487;BME280;7845;53.698;10.078;2023-07-09T07:26:39;101735.72;;;27.22;78.56
15487;BME280;7845;53.698;10.078;2023-07-09T07:29:04;101744.59;;;27.52;78.78
15487;BME280;7845;53.698;10.078;2023-07-09T07:31:30;101740.47;;;27.46;78.64
15487;BME280;7845;53.698;10.078;2023-07-09T07:33:56;101741.53;;;27.58;78.39
15487;BME280;7845;53.698;10.078;2023-07-09T07:36:21;101733.91;;;27.36;78.31
15487;BME280;7845;53.698;10.078;2023-07-09T07:38:46;101735.28;;;27.58;79.20
15487;BME280;7845;53.698;10.078;2023-07-09T07:41:12;101724.63;;;27.70;78.46
15487;BME280;7845;53.698;10.078;2023-07-09T07:43:37;101732.88;;;27.67;79.08
15487;BME280;7845;53.698;10.078;2023-07-09T07:46:03;101733.25;;;27.75;78.77
15487;BME280;7845;53.698;10.078;2023-07-09T07:48:29;101743.63;;;27.67;79.19
15487;BME280;7845;53.698;10.078;2023-07-09T07:50:59;101729.22;;;27.82;78.88
15487;BME280;7845;53.698;10.078;2023-07-09T07:53:25;101736.13;;;27.86;80.06
15487;BME280;7845;53.698;10.078;2023-07-09T07:55:51;101739.91;;;27.96;80.02
15487;BME280;7845;53.698;10.078;2023-07-09T07:58:18;101732.66;;;27.98;79.62
15487;BME280;7845;53.698;10.078;2023-07-09T08:00:43;101738.78;;;28.00;80.28
15487;BME280;7845;53.698;10.078;2023-07-09T08:03:09;101733.69;;;28.10;78.67
15487;BME280;7845;53.698;10.078;2023-07-09T08:05:34;101732.72;;;28.11;79.69
15487;BME280;7845;53.698;10.078;2023-07-09T08:07:59;101722.97;;;28.10;76.61
15487;BME280;7845;53.698;10.078;2023-07-09T08:10:25;101722.78;;;28.26;76.27
15487;BME280;7845;53.698;10.078;2023-07-09T08:12:50;101718.84;;;28.31;75.82
15487;BME280;7845;53.698;10.078;2023-07-09T08:15:17;101723.38;;;28.43;76.71
15487;BME280;7845;53.698;10.078;2023-07-09T08:17:43;101724.66;;;28.38;76.09
15487;BME280;7845;53.698;10.078;2023-07-09T08:20:09;101723.38;;;28.43;76.31
15487;BME280;7845;53.698;10.078;2023-07-09T08:22:35;101719.31;;;28.50;76.43
15487;BME280;7845;53.698;10.078;2023-07-09T08:25:00;101722.34;;;28.58;76.88
15487;BME280;7845;53.698;10.078;2023-07-09T08:27:26;101721.13;;;28.37;76.36
15487;BME280;7845;53.698;10.078;2023-07-09T08:29:52;101717.31;;;28.54;74.97
15487;BME280;7845;53.698;10.078;2023-07-09T08:32:18;101718.91;;;28.56;74.83
15487;BME280;7845;53.698;10.078;2023-07-09T08:34:45;101719.28;;;28.65;76.13
15487;BME280;7845;53.698;10.078;2023-07-09T08:37:11;101709.91;;;28.58;75.18
15487;BME280;7845;53.698;10.078;2023-07-09T08:39:38;101713.66;;;28.55;73.61
15487;BME280;7845;53.698;10.078;2023-07-09T08:42:11;101706.06;;;28.74;73.88
15487;BME280;7845;53.698;10.078;2023-07-09T08:50:24;101719.53;;;28.87;75.30
15487;BME280;7845;53.698;10.078;2023-07-09T08:52:52;101709.53;;;28.89;75.67
15487;BME280;7845;53.698;10.078;2023-07-09T08:55:25;101710.53;;;28.88;75.69
15487;BME280;7845;53.698;10.078;2023-07-09T08:58:01;101707.41;;;28.94;74.73
15487;BME280;7845;53.698;10.078;2023-07-09T09:00:32;101703.50;;;28.98;73.81
15487;BME280;7845;53.698;10.078;2023-07-09T09:03:05;101701.47;;;29.01;74.01
15487;BME280;7845;53.698;10.078;2023-07-09T09:05:38;101697.63;;;29.05;74.03
15487;BME280;7845;53.698;10.078;2023-07-09T09:11:37;101701.06;;;29.20;76.98
15487;BME280;7845;53.698;10.078;2023-07-09T09:13:41;101702.47;;;29.38;75.02
15487;BME280;7845;53.698;10.078;2023-07-09T09:16:24;101705.69;;;29.31;74.29
15487;BME280;7845;53.698;10.078;2023-07-09T09:18:50;101706.13;;;29.25;72.79
15487;BME280;7845;53.698;10.078;2023-07-09T09:21:29;101703.22;;;29.40;72.89
15487;BME280;7845;53.698;10.078;2023-07-09T09:23:57;101698.91;;;29.50;73.62
15487;BME280;7845;53.698;10.078;2023-07-09T09:26:34;101690.25;;;29.58;72.95
15487;BME280;7845;53.698;10.078;2023-07-09T09:29:11;101698.75;;;29.64;73.15
15487;BME280;7845;53.698;10.078;2023-07-09T09:31:36;101698.31;;;29.71;72.98
15487;BME280;7845;53.698;10.078;2023-07-09T09:34:02;101696.56;;;29.82;73.31
15487;BME280;7845;53.698;10.078;2023-07-09T09:36:28;101687.41;;;29.85;72.16
15487;BME280;7845;53.698;10.078;2023-07-09T09:38:53;101690.59;;;29.90;72.71
15487;BME280;7845;53.698;10.078;2023-07-09T09:41:22;101683.16;;;29.93;71.98
15487;BME280;7845;53.698;10.078;2023-07-09T09:43:48;101689.78;;;29.89;72.96
15487;BME280;7845;53.698;10.078;2023-07-09T09:46:22;101695.63;;;30.07;73.71
15487;BME280;7845;53.698;10.078;2023-07-09T09:48:50;101692.75;;;30.21;73.96
15487;BME280;7845;53.698;10.078;2023-07-09T09:51:19;101687.13;;;30.24;73.40
15487;BME280;7845;53.698;10.078;2023-07-09T09:53:55;101688.50;;;30.30;73.99
15487;BME280;7845;53.698;10.078;2023-07-09T09:56:33;101680.81;;;30.36;73.60
15487;BME280;7845;53.698;10.078;2023-07-09T09:58:59;101688.47;;;30.42;72.61
15487;BME280;7845;53.698;10.078;2023-07-09T10:01:30;101684.28;;;30.38;71.58
15487;BME280;7845;53.698;10.078;2023-07-09T10:03:58;101682.00;;;30.56;71.70
15487;BME280;7845;53.698;10.078;2023-07-09T10:06:36;101688.03;;;30.59;72.74
15487;BME280;7845;53.698;10.078;2023-07-09T10:09:16;101677.72;;;30.64;70.44
15487;BME280;7845;53.698;10.078;2023-07-09T10:11:45;101675.66;;;30.57;69.46
15487;BME280;7845;53.698;10.078;2023-07-09T10:17:50;101674.31;;;30.73;69.79
15487;BME280;7845;53.698;10.078;2023-07-09T10:20:38;101669.44;;;30.79;69.67
15487;BME280;7845;53.698;10.078;2023-07-09T10:29:08;101680.06;;;31.04;70.01
15487;BME280;7845;53.698;10.078;2023-07-09T10:32:01;101666.31;;;31.07;67.95
15487;BME280;7845;53.698;10.078;2023-07-09T10:34:53;101674.69;;;31.15;67.76
15487;BME280;7845;53.698;10.078;2023-07-09T10:40:10;101667.28;;;31.39;67.60
15487;BME280;7845;53.698;10.078;2023-07-09T10:42:42;101659.34;;;31.49;66.86
15487;BME280;7845;53.698;10.078;2023-07-09T10:45:12;101658.50;;;31.59;67.03
15487;BME280;7845;53.698;10.078;2023-07-09T10:47:44;101657.63;;;31.59;66.76
15487;BME280;7845;53.698;10.078;2023-07-09T10:50:33;101659.31;;;31.71;66.38
15487;BME280;7845;53.698;10.078;2023-07-09T10:53:09;101663.97;;;31.80;67.38
15487;BME280;7845;53.698;10.078;2023-07-09T10:55:57;101659.44;;;31.81;67.71
15487;BME280;7845;53.698;10.078;2023-07-09T11:00:57;101654.72;;;32.05;66.83
15487;BME280;7845;53.698;10.078;2023-07-09T11:03:42;101648.56;;;32.03;68.03
15487;BME280;7845;53.698;10.078;2023-07-09T11:06:22;101652.88;;;32.26;66.18
15487;BME280;7845;53.698;10.078;2023-07-09T11:08:53;101637.00;;;32.32;63.62
15487;BME280;7845;53.698;10.078;2023-07-09T11:11:37;101639.09;;;32.29;62.74
15487;BME280;7845;53.698;10.078;2023-07-09T11:14:24;101641.69;;;32.51;63.41
15487;BME280;7845;53.698;10.078;2023-07-09T11:16:53;101641.81;;;32.61;65.21
15487;BME280;7845;53.698;10.078;2023-07-09T11:19:20;101638.25;;;32.60;60.69
15487;BME280;7845;53.698;10.078;2023-07-09T11:22:03;101643.28;;;32.74;60.86
15487;BME280;7845;53.698;10.078;2023-07-09T11:24:51;101630.81;;;32.83;58.06
15487;BME280;7845;53.698;10.078;2023-07-09T11:27:23;101632.69;;;32.62;57.72
15487;BME280;7845;53.698;10.078;2023-07-09T11:30:23;101631.28;;;32.88;57.41
15487;BME280;7845;53.698;10.078;2023-07-09T11:32:56;101623.00;;;33.10;59.45
15487;BME280;7845;53.698;10.078;2023-07-09T11:35:25;101620.81;;;33.04;58.90
15487;BME280;7845;53.698;10.078;2023-07-09T11:37:51;101624.34;;;33.25;58.94
15487;BME280;7845;53.698;10.078;2023-07-09T11:40:19;101623.53;;;33.34;58.38
15487;BME280;7845;53.698;10.078;2023-07-09T11:42:57;101616.38;;;33.33;56.02
15487;BME280;7845;53.698;10.078;2023-07-09T11:45:27;101618.72;;;33.48;57.22
15487;BME280;7845;53.698;10.078;2023-07-09T11:48:27;101615.19;;;33.57;56.90
15487;BME280;7845;53.698;10.078;2023-07-09T11:50:55;101600.97;;;33.74;55.41
15487;BME280;7845;53.698;10.078;2023-07-09T11:53:34;101605.09;;;33.87;55.58
15487;BME280;7845;53.698;10.078;2023-07-09T11:56:02;101611.22;;;33.99;55.97
15487;BME280;7845;53.698;10.078;2023-07-09T11:58:28;101602.28;;;33.89;54.66
15487;BME280;7845;53.698;10.078;2023-07-09T12:00:57;101611.72;;;34.14;56.28
15487;BME280;7845;53.698;10.078;2023-07-09T12:03:26;101595.72;;;34.20;53.52
15487;BME280;7845;53.698;10.078;2023-07-09T12:05:55;101596.00;;;34.08;53.85
15487;BME280;7845;53.698;10.078;2023-07-09T12:08:36;101600.72;;;34.15;54.83
15487;BME280;7845;53.698;10.078;2023-07-09T12:11:04;101603.84;;;34.20;52.67
15487;BME280;7845;53.698;10.078;2023-07-09T12:13:37;101601.00;;;34.22;50.81
15487;BME280;7845;53.698;10.078;2023-07-09T12:16:02;101592.88;;;34.31;52.41
15487;BME280;7845;53.698;10.078;2023-07-09T12:18:29;101587.41;;;34.41;51.62
15487;BME280;7845;53.698;10.078;2023-07-09T12:20:56;101590.09;;;34.60;51.39
15487;BME280;7845;53.698;10.078;2023-07-09T12:23:32;101581.50;;;34.74;50.30
15487;BME280;7845;53.698;10.078;2023-07-09T12:26:02;101582.69;;;34.53;49.60
15487;BME280;7845;53.698;10.078;2023-07-09T12:28:30;101580.13;;;34.61;51.42
15487;BME280;7845;53.698;10.078;2023-07-09T12:30:56;101583.22;;;34.66;51.81
15487;BME280;7845;53.698;10.078;2023-07-09T12:33:23;101575.16;;;34.83;51.05
15487;BME280;7845;53.698;10.078;2023-07-09T12:35:54;101571.59;;;34.83;51.16
15487;BME280;7845;53.698;10.078;2023-07-09T12:38:26;101578.63;;;34.85;51.06
15487;BME280;7845;53.698;10.078;2023-07-09T12:40:59;101578.25;;;34.98;52.19
15487;BME280;7845;53.698;10.078;2023-07-09T12:43:30;101560.41;;;34.95;51.73
15487;BME280;7845;53.698;10.078;2023-07-09T12:45:59;101564.97;;;34.68;50.56
15487;BME280;7845;53.698;10.078;2023-07-09T12:48:27;101561.19;;;34.78;50.39
15487;BME280;7845;53.698;10.078;2023-07-09T12:50:58;101560.09;;;34.98;50.80
15487;BME280;7845;53.698;10.078;2023-07-09T12:53:28;101552.34;;;35.13;50.24
15487;BME280;7845;53.698;10.078;2023-07-09T12:55:58;101550.66;;;35.03;47.59
15487;BME280;7845;53.698;10.078;2023-07-09T12:58:36;101549.34;;;35.34;48.32
15487;BME280;7845;53.698;10.078;2023-07-09T13:01:14;101539.50;;;35.60;47.30
15487;BME280;7845;53.698;10.078;2023-07-09T13:03:41;101550.88;;;35.64;47.20
15487;BME280;7845;53.698;10.078;2023-07-09T13:06:26;101549.81;;;36.10;47.77
15487;BME280;7845;53.698;10.078;2023-07-09T13:08:56;101550.63;;;36.53;47.48
15487;BME280;7845;53.698;10.078;2023-07-09T13:11:23;101544.41;;;36.61;45.38
15487;BME280;7845;53.698;10.078;2023-07-09T13:13:58;101540.63;;;36.88;42.64
15487;BME280;7845;53.698;10.078;2023-07-09T13:16:25;101544.81;;;37.08;42.12
15487;BME280;7845;53.698;10.078;2023-07-09T13:18:50;101546.75;;;37.24;41.07
15487;BME280;7845;53.698;10.078;2023-07-09T13:21:17;101546.00;;;37.13;40.59